createdAt,value
2022-09-01T00:00:30.134Z,100482.54
2022-09-01T00:03:04.663Z,100480.17
2022-09-01T00:05:33.298Z,100477.63
2022-09-01T00:08:01.795Z,100474.44
2022-09-01T00:10:30.231Z,100480.26
2022-09-01T00:12:58.810Z,100482.56
2022-09-01T00:15:27.609Z,100477.75
2022-09-01T00:17:56.295Z,100476.73
2022-09-01T00:20:24.675Z,100474.80
2022-09-01T00:22:52.924Z,100475.35
2022-09-01T00:25:24.848Z,100482.31
2022-09-01T00:27:53.276Z,100483.85
2022-09-01T00:30:22.760Z,100484.17
2022-09-01T00:32:51.203Z,100482.11
2022-09-01T00:35:20.433Z,100474.94
2022-09-01T00:37:48.983Z,100470.64
2022-09-01T00:40:18.500Z,100466.73
2022-09-01T00:42:49.423Z,100466.76
2022-09-01T00:45:19.498Z,100466.39
2022-09-01T00:47:50.056Z,100461.92
2022-09-01T00:50:20.426Z,100460.38
2022-09-01T00:52:53.130Z,100460.20
2022-09-01T00:55:33.181Z,100459.95
2022-09-01T00:58:04.080Z,100455.35
2022-09-01T01:00:38.552Z,100449.02
2022-09-01T01:03:13.194Z,100450.77
2022-09-01T01:05:54.201Z,100455.62
2022-09-01T01:08:36.442Z,100454.14
2022-09-01T01:11:18.072Z,100453.98
2022-09-01T01:13:54.939Z,100455.64
2022-09-01T01:16:26.744Z,100454.95
2022-09-01T01:18:55.795Z,100457.48
2022-09-01T01:21:55.234Z,100461.87
2022-09-01T01:24:34.326Z,100462.63
2022-09-01T01:27:03.670Z,100464.75
2022-09-01T01:29:38.144Z,100467.98
2022-09-01T01:32:13.485Z,100464.02
2022-09-01T01:34:43.726Z,100467.22
2022-09-01T01:37:14.571Z,100464.58
2022-09-01T01:39:44.488Z,100468.23
2022-09-01T01:42:12.977Z,100465.38
2022-09-01T01:44:42.795Z,100469.98
2022-09-01T01:47:13.552Z,100471.76
2022-09-01T01:49:44.949Z,100472.65
2022-09-01T01:52:17.664Z,100479.17
2022-09-01T01:54:47.587Z,100484.40
2022-09-01T01:57:18.013Z,100480.74
2022-09-01T01:59:46.382Z,100485.77
2022-09-01T02:02:14.731Z,100491.14
2022-09-01T02:04:43.610Z,100497.25
2022-09-01T02:07:13.986Z,100487.36
2022-09-01T02:09:46.255Z,100492.95
2022-09-01T02:12:19.792Z,100490.71
2022-09-01T02:14:48.754Z,100490.80
2022-09-01T02:17:18.046Z,100492.98
2022-09-01T02:19:47.558Z,100494.34
2022-09-01T02:22:15.861Z,100491.25
2022-09-01T02:24:49.341Z,100493.15
2022-09-01T02:27:25.978Z,100489.80
2022-09-01T02:29:55.712Z,100487.41
2022-09-01T02:32:24.217Z,100482.23
2022-09-01T02:35:01.570Z,100486.37
2022-09-01T02:37:29.887Z,100486.22
2022-09-01T02:39:58.834Z,100488.79
2022-09-01T02:42:29.369Z,100489.36
2022-09-01T02:44:58.792Z,100493.67
2022-09-01T02:47:29.746Z,100497.27
2022-09-01T02:50:01.294Z,100495.22
2022-09-01T02:52:35.687Z,100498.57
2022-09-01T02:55:05.179Z,100499.84
2022-09-01T02:57:36.114Z,100498.52
2022-09-01T03:00:20.904Z,100500.35
2022-09-01T03:02:53.085Z,100502.92
2022-09-01T03:05:27.160Z,100504.90
2022-09-01T03:07:58.768Z,100501.30
2022-09-01T03:10:36.339Z,100506.02
2022-09-01T03:13:10.573Z,100505.69
2022-09-01T03:15:39.421Z,100498.29
2022-09-01T03:18:10.245Z,100495.36
2022-09-01T03:20:43.620Z,100497.37
2022-09-01T03:23:19.236Z,100508.14
2022-09-01T03:25:48.865Z,100510.06
2022-09-01T03:28:17.596Z,100509.98
2022-09-01T03:30:51.263Z,100510.77
2022-09-01T03:33:21.505Z,100509.82
2022-09-01T03:35:50.414Z,100511.27
2022-09-01T03:38:24.314Z,100511.52
2022-09-01T03:41:02.287Z,100508.60
2022-09-01T03:43:36.328Z,100509.00
2022-09-01T03:46:05.723Z,100507.24
2022-09-01T03:48:36.013Z,100508.20
2022-09-01T03:51:04.760Z,100511.87
2022-09-01T03:53:38.396Z,100509.23
2022-09-01T03:56:07.485Z,100507.64
2022-09-01T03:58:35.847Z,100508.68
2022-09-01T04:01:05.316Z,100506.54
2022-09-01T04:03:39.841Z,100503.65
2022-09-01T04:06:10.765Z,100502.30
2022-09-01T04:08:39.623Z,100496.30
2022-09-01T04:11:18.962Z,100494.56
2022-09-01T04:13:51.118Z,100494.45
2022-09-01T04:16:52.673Z,100495.17
2022-09-01T04:19:26.443Z,100495.43
2022-09-01T04:22:02.353Z,100495.77
2022-09-01T04:24:46.138Z,100497.92
2022-09-01T04:27:18.366Z,100497.92
2022-09-01T04:29:47.836Z,100494.16
2022-09-01T04:32:17.198Z,100492.73
2022-09-01T04:34:51.097Z,100494.64
2022-09-01T04:37:21.878Z,100500.77
2022-09-01T04:40:00.192Z,100507.95
2022-09-01T04:42:32.645Z,100507.86
2022-09-01T04:45:10.731Z,100509.22
2022-09-01T04:47:45.677Z,100506.83
2022-09-01T04:50:18.648Z,100498.30
2022-09-01T04:53:06.953Z,100495.84
2022-09-01T04:55:49.834Z,100501.25
2022-09-01T04:58:20.851Z,100496.29
2022-09-01T05:00:53.545Z,100494.12
2022-09-01T05:03:24.816Z,100491.39
2022-09-01T05:06:04.018Z,100491.86
2022-09-01T05:08:35.357Z,100491.14
2022-09-01T05:11:08.218Z,100491.79
2022-09-01T05:13:39.877Z,100500.60
2022-09-01T05:16:13.470Z,100505.95
2022-09-01T05:18:47.895Z,100508.89
2022-09-01T05:21:22.456Z,100512.39
2022-09-01T05:23:52.065Z,100511.98
2022-09-01T05:26:26.319Z,100510.52
2022-09-01T05:29:10.946Z,100509.85
2022-09-01T05:31:45.500Z,100504.30
2022-09-01T05:34:26.521Z,100502.20
2022-09-01T05:37:00.004Z,100499.59
2022-09-01T05:39:29.561Z,100499.88
2022-09-01T05:41:59.852Z,100506.14
2022-09-01T05:44:28.263Z,100502.60
2022-09-01T05:47:00.244Z,100506.80
2022-09-01T05:49:31.737Z,100507.45
2022-09-01T05:52:00.692Z,100509.90
2022-09-01T05:54:32.687Z,100512.27
2022-09-01T05:57:17.397Z,100515.09
2022-09-01T05:59:54.239Z,100513.26
2022-09-01T06:02:27.592Z,100510.48
2022-09-01T06:04:57.553Z,100509.77
2022-09-01T06:07:30.500Z,100512.05
2022-09-01T06:10:01.051Z,100513.34
2022-09-01T06:12:29.324Z,100516.58
2022-09-01T06:14:59.275Z,100515.96
2022-09-01T06:17:29.018Z,100512.77
2022-09-01T06:19:59.718Z,100518.59
2022-09-01T06:22:29.208Z,100520.48
2022-09-01T06:25:02.748Z,100522.34
2022-09-01T06:27:38.933Z,100527.88
2022-09-01T06:30:15.306Z,100531.02
2022-09-01T06:32:51.709Z,100527.05
2022-09-01T06:35:22.130Z,100525.42
2022-09-01T06:37:50.524Z,100530.21
2022-09-01T06:40:36.171Z,100532.69
2022-09-01T06:43:08.165Z,100542.89
2022-09-01T06:45:49.963Z,100539.54
2022-09-01T06:48:18.738Z,100537.69
2022-09-01T06:53:39.103Z,100534.58
2022-09-01T06:56:12.772Z,100529.69
2022-09-01T06:58:47.270Z,100528.04
2022-09-01T07:01:18.169Z,100531.52
2022-09-01T07:03:51.271Z,100532.14
2022-09-01T07:09:48.067Z,100521.75
2022-09-01T07:12:37.729Z,100522.26
2022-09-01T07:17:58.446Z,100520.60
2022-09-01T07:20:33.516Z,100523.14
2022-09-01T07:23:04.155Z,100526.41
2022-09-01T07:25:48.273Z,100527.33
2022-09-01T07:28:39.938Z,100526.73
2022-09-01T07:39:48.499Z,100529.46
2022-09-01T07:45:47.132Z,100528.98
2022-09-01T07:49:02.531Z,100527.03
2022-09-01T07:54:03.746Z,100524.27
2022-09-01T07:56:36.299Z,100520.70
2022-09-01T07:59:14.749Z,100519.75
2022-09-01T08:02:24.778Z,100517.33
2022-09-01T08:04:53.410Z,100515.16
2022-09-01T08:07:21.920Z,100516.30
2022-09-01T08:09:50.319Z,100514.66
2022-09-01T08:12:18.786Z,100508.52
2022-09-01T08:17:51.644Z,100501.09
2022-09-01T08:20:21.337Z,100499.73
2022-09-01T08:23:19.836Z,100493.69
2022-09-01T08:25:50.843Z,100496.41
2022-09-01T08:28:26.549Z,100498.77
2022-09-01T08:30:56.562Z,100501.50
2022-09-01T08:33:27.304Z,100500.05
2022-09-01T08:35:57.402Z,100498.13
2022-09-01T08:38:27.074Z,100498.83
2022-09-01T08:40:59.314Z,100496.58
2022-09-01T08:44:05.536Z,100498.71
2022-09-01T08:46:40.009Z,100492.85
2022-09-01T08:49:27.832Z,100490.31
2022-09-01T08:52:48.146Z,100494.47
2022-09-01T08:55:39.332Z,100495.64
2022-09-01T08:58:18.451Z,100496.85
2022-09-01T09:01:17.835Z,100505.71
2022-09-01T09:04:20.521Z,100496.17
2022-09-01T09:07:10.925Z,100498.17
2022-09-01T09:09:54.371Z,100497.80
2022-09-01T09:12:22.657Z,100493.20
2022-09-01T09:15:01.556Z,100488.86
2022-09-01T09:17:37.570Z,100490.52
2022-09-01T09:20:06.967Z,100488.56
2022-09-01T09:22:35.285Z,100487.76
2022-09-01T09:25:19.293Z,100481.94
2022-09-01T09:28:00.561Z,100485.00
2022-09-01T09:30:32.580Z,100476.08
2022-09-01T09:33:49.778Z,100474.19
2022-09-01T09:36:37.289Z,100473.86
2022-09-01T09:39:17.562Z,100476.95
2022-09-01T09:42:13.621Z,100479.53
2022-09-01T09:44:51.281Z,100479.09
2022-09-01T09:47:44.926Z,100477.81
2022-09-01T09:50:24.017Z,100478.83
2022-09-01T09:53:10.444Z,100478.56
2022-09-01T09:56:13.864Z,100477.31
2022-09-01T09:58:44.928Z,100477.31
2022-09-01T10:01:29.849Z,100480.27
2022-09-01T10:04:03.832Z,100472.64
2022-09-01T10:06:45.435Z,100471.95
2022-09-01T10:09:38.638Z,100471.24
2022-09-01T10:12:07.214Z,100470.27
2022-09-01T10:14:51.974Z,100469.67
2022-09-01T10:17:43.918Z,100470.02
2022-09-01T10:20:21.216Z,100469.00
2022-09-01T10:22:50.950Z,100470.43
2022-09-01T10:25:29.146Z,100472.96
2022-09-01T10:28:20.941Z,100471.38
2022-09-01T10:30:52.871Z,100469.14
2022-09-01T10:33:22.934Z,100472.84
2022-09-01T10:35:54.025Z,100469.51
2022-09-01T10:38:25.676Z,100473.41
2022-09-01T10:41:15.769Z,100473.09
2022-09-01T10:43:50.031Z,100470.13
2022-09-01T10:46:25.850Z,100471.30
2022-09-01T10:49:03.032Z,100471.52
2022-09-01T10:51:49.869Z,100465.45
2022-09-01T10:54:57.020Z,100466.19
2022-09-01T10:57:43.719Z,100463.21
2022-09-01T11:00:39.837Z,100460.80
2022-09-01T11:03:30.594Z,100465.45
2022-09-01T11:06:14.642Z,100468.67
2022-09-01T11:08:59.725Z,100461.98
2022-09-01T11:11:41.904Z,100466.48
2022-09-01T11:14:23.859Z,100463.32
2022-09-01T11:17:16.803Z,100463.13
2022-09-01T11:20:13.754Z,100459.92
2022-09-01T11:22:46.707Z,100462.79
2022-09-01T11:25:39.596Z,100455.73
2022-09-01T11:28:15.596Z,100455.02
2022-09-01T11:30:59.184Z,100453.27
2022-09-01T11:34:02.619Z,100452.99
2022-09-01T11:36:48.817Z,100453.37
2022-09-01T11:39:20.928Z,100450.78
2022-09-01T11:42:19.351Z,100449.09
2022-09-01T11:45:02.306Z,100449.70
2022-09-01T11:47:44.991Z,100441.27
2022-09-01T11:50:28.011Z,100435.07
2022-09-01T11:53:15.980Z,100441.58
2022-09-01T11:55:51.739Z,100439.10
2022-09-01T11:58:30.977Z,100441.19
2022-09-01T12:01:31.504Z,100433.75
2022-09-01T12:04:27.772Z,100433.02
2022-09-01T12:07:11.086Z,100429.98
2022-09-01T12:09:44.520Z,100427.47
2022-09-01T12:12:33.911Z,100431.81
2022-09-01T12:15:27.522Z,100427.31
2022-09-01T12:18:15.369Z,100422.02
2022-09-01T12:20:43.999Z,100412.60
2022-09-01T12:23:30.752Z,100410.67
2022-09-01T12:26:05.618Z,100408.94
2022-09-01T12:28:35.547Z,100405.52
2022-09-01T12:31:07.778Z,100413.58
2022-09-01T12:33:37.226Z,100413.82
2022-09-01T12:36:21.115Z,100410.90
2022-09-01T12:38:50.405Z,100407.71
2022-09-01T12:41:39.042Z,100410.77
2022-09-01T12:44:29.963Z,100408.62
2022-09-01T12:47:34.482Z,100410.70
2022-09-01T12:50:16.423Z,100404.34
2022-09-01T12:52:56.778Z,100411.49
2022-09-01T12:58:25.974Z,100418.51
2022-09-01T13:01:08.774Z,100424.43
2022-09-01T13:04:26.600Z,100422.14
2022-09-01T13:07:00.976Z,100410.61
2022-09-01T13:09:30.237Z,100411.11
2022-09-01T13:12:21.789Z,100415.24
2022-09-01T13:14:51.040Z,100416.22
2022-09-01T13:17:21.147Z,100416.02
2022-09-01T13:19:49.857Z,100415.47
2022-09-01T13:22:18.559Z,100411.92
2022-09-01T13:24:47.251Z,100411.80
2022-09-01T13:27:23.372Z,100417.67
2022-09-01T13:29:52.773Z,100415.70
2022-09-01T13:32:24.234Z,100411.45
2022-09-01T13:34:54.374Z,100418.63
2022-09-01T13:37:24.052Z,100421.85
2022-09-01T13:39:52.868Z,100424.73
2022-09-01T13:42:22.842Z,100424.48
2022-09-01T13:44:57.014Z,100422.84
2022-09-01T13:47:30.018Z,100422.98
2022-09-01T13:50:10.591Z,100424.25
2022-09-01T13:52:54.977Z,100423.61
2022-09-01T13:55:34.772Z,100425.52
2022-09-01T13:58:03.503Z,100435.98
2022-09-01T14:00:37.818Z,100437.09
2022-09-01T14:03:19.897Z,100439.35
2022-09-01T14:05:50.252Z,100440.98
2022-09-01T14:08:22.884Z,100438.80
2022-09-01T14:10:54.460Z,100438.12
2022-09-01T14:13:25.163Z,100436.79
2022-09-01T14:15:54.982Z,100441.02
2022-09-01T14:18:23.843Z,100442.80
2022-09-01T14:20:52.633Z,100439.92
2022-09-01T14:23:21.322Z,100445.97
2022-09-01T14:25:52.126Z,100447.90
2022-09-01T14:28:23.075Z,100451.50
2022-09-01T14:33:24.473Z,100449.67
2022-09-01T14:35:54.529Z,100449.97
2022-09-01T14:38:23.272Z,100448.91
2022-09-01T14:40:52.799Z,100450.23
2022-09-01T14:43:22.141Z,100451.27
2022-09-01T14:45:50.905Z,100456.28
2022-09-01T14:48:21.003Z,100451.63
2022-09-01T14:50:51.165Z,100456.68
2022-09-01T14:53:20.178Z,100458.33
2022-09-01T14:55:51.482Z,100457.30
2022-09-01T14:58:25.987Z,100455.42
2022-09-01T15:01:03.606Z,100453.40
2022-09-01T15:03:36.001Z,100450.02
2022-09-01T15:06:04.749Z,100452.38
2022-09-01T15:08:33.235Z,100458.13
2022-09-01T15:11:01.717Z,100458.58
2022-09-01T15:13:30.171Z,100458.40
2022-09-01T15:15:58.942Z,100461.39
2022-09-01T15:18:27.554Z,100462.27
2022-09-01T15:20:56.153Z,100465.83
2022-09-01T15:23:26.371Z,100469.24
2022-09-01T15:25:55.774Z,100469.64
2022-09-01T15:28:25.786Z,100469.27
2022-09-01T15:30:54.669Z,100475.23
2022-09-01T15:33:23.133Z,100472.19
2022-09-01T15:35:52.109Z,100470.84
2022-09-01T15:38:24.977Z,100479.55
2022-09-01T15:40:58.535Z,100481.95
2022-09-01T15:43:31.174Z,100481.61
2022-09-01T15:46:02.232Z,100482.13
2022-09-01T15:48:31.101Z,100474.74
2022-09-01T15:51:28.132Z,100479.41
2022-09-01T15:54:08.604Z,100478.55
2022-09-01T15:56:38.025Z,100479.31
2022-09-01T15:59:08.659Z,100477.27
2022-09-01T16:01:42.487Z,100484.13
2022-09-01T16:04:19.889Z,100487.02
2022-09-01T16:06:51.275Z,100493.80
2022-09-01T16:09:21.380Z,100495.20
2022-09-01T16:11:50.247Z,100495.20
2022-09-01T16:14:21.036Z,100493.91
2022-09-01T16:17:08.503Z,100498.34
2022-09-01T16:19:46.242Z,100501.30
2022-09-01T16:22:36.044Z,100499.42
2022-09-01T16:25:24.272Z,100499.52
2022-09-01T16:27:55.288Z,100501.60
2022-09-01T16:30:28.871Z,100503.89
2022-09-01T16:33:03.001Z,100500.90
2022-09-01T16:35:48.574Z,100505.02
2022-09-01T16:38:29.567Z,100504.35
2022-09-01T16:41:54.405Z,100503.47
2022-09-01T16:45:16.220Z,100506.98
2022-09-01T16:48:12.491Z,100510.70
2022-09-01T16:51:17.900Z,100508.83
2022-09-01T16:54:21.234Z,100513.60
2022-09-01T16:57:32.896Z,100514.42
2022-09-01T17:00:09.654Z,100520.35
2022-09-01T17:03:20.702Z,100525.23
2022-09-01T17:06:03.816Z,100534.56
2022-09-01T17:08:43.131Z,100541.11
2022-09-01T17:11:33.106Z,100543.48
2022-09-01T17:14:03.456Z,100548.61
2022-09-01T17:16:44.591Z,100553.91
2022-09-01T17:19:20.364Z,100552.84
2022-09-01T17:22:00.621Z,100555.38
2022-09-01T17:24:44.862Z,100560.95
2022-09-01T17:27:18.851Z,100560.65
2022-09-01T17:29:54.343Z,100564.65
2022-09-01T17:32:41.759Z,100568.14
2022-09-01T17:36:02.814Z,100570.68
2022-09-01T17:38:36.756Z,100575.49
2022-09-01T17:41:35.323Z,100572.94
2022-09-01T17:44:45.654Z,100573.00
2022-09-01T17:47:43.933Z,100574.42
2022-09-01T17:50:26.895Z,100580.17
2022-09-01T17:53:26.058Z,100582.06
2022-09-01T17:56:13.865Z,100586.13
2022-09-01T17:58:56.609Z,100586.48
2022-09-01T18:01:44.766Z,100589.53
2022-09-01T18:04:28.487Z,100592.42
2022-09-01T18:07:04.692Z,100590.16
2022-09-01T18:09:56.309Z,100590.23
2022-09-01T18:12:37.571Z,100587.72
2022-09-01T18:15:11.006Z,100597.30
2022-09-01T18:17:48.789Z,100601.34
2022-09-01T18:20:45.005Z,100595.98
2022-09-01T18:23:20.361Z,100590.37
2022-09-01T18:26:03.527Z,100591.35
2022-09-01T18:28:32.297Z,100592.34
2022-09-01T18:31:27.349Z,100591.39
2022-09-01T18:34:34.725Z,100598.27
2022-09-01T18:37:18.647Z,100598.40
2022-09-01T18:40:09.614Z,100607.04
2022-09-01T18:42:56.023Z,100607.13
2022-09-01T18:45:50.166Z,100617.68
2022-09-01T18:48:50.014Z,100619.88
2022-09-01T18:51:32.045Z,100623.75
2022-09-01T18:54:30.627Z,100627.21
2022-09-01T18:57:07.068Z,100626.52
2022-09-01T19:00:18.213Z,100628.80
2022-09-01T19:03:10.776Z,100632.27
2022-09-01T19:06:12.939Z,100632.53
2022-09-01T19:09:26.058Z,100636.32
2022-09-01T19:12:38.354Z,100639.23
2022-09-01T19:15:20.997Z,100642.05
2022-09-01T19:18:04.521Z,100646.28
2022-09-01T19:20:47.093Z,100644.63
2022-09-01T19:23:53.154Z,100644.45
2022-09-01T19:26:26.321Z,100645.75
2022-09-01T19:29:04.715Z,100648.73
2022-09-01T19:31:39.918Z,100651.86
2022-09-01T19:34:18.178Z,100650.20
2022-09-01T19:36:57.200Z,100650.29
2022-09-01T19:39:35.291Z,100652.27
2022-09-01T19:42:40.669Z,100656.73
2022-09-01T19:45:24.163Z,100660.80
2022-09-01T19:48:22.268Z,100662.11
2022-09-01T19:51:04.298Z,100664.20
2022-09-01T19:54:12.693Z,100666.13
2022-09-01T19:57:05.437Z,100667.27
2022-09-01T20:00:06.512Z,100667.54
2022-09-01T20:02:46.991Z,100670.13
2022-09-01T20:05:46.410Z,100671.83
2022-09-01T20:08:25.073Z,100667.30
2022-09-01T20:11:20.446Z,100670.50
2022-09-01T20:14:17.658Z,100671.40
2022-09-01T20:16:51.692Z,100672.95
2022-09-01T20:20:14.052Z,100678.23
2022-09-01T20:22:51.299Z,100680.30
2022-09-01T20:25:26.289Z,100679.27
2022-09-01T20:28:13.408Z,100681.43
2022-09-01T20:30:52.396Z,100685.59
2022-09-01T20:33:30.921Z,100685.91
2022-09-01T20:36:38.741Z,100687.67
2022-09-01T20:39:33.080Z,100695.10
2022-09-01T20:42:06.645Z,100696.53
2022-09-01T20:44:57.727Z,100698.13
2022-09-01T20:47:31.423Z,100699.09
2022-09-01T20:50:02.802Z,100696.69
2022-09-01T20:53:00.083Z,100697.09
2022-09-01T20:55:41.839Z,100697.25
2022-09-01T20:58:37.125Z,100701.48
2022-09-01T21:01:27.815Z,100703.71
2022-09-01T21:04:02.004Z,100700.45
2022-09-01T21:06:55.788Z,100702.70
2022-09-01T21:09:42.280Z,100701.92
2022-09-01T21:12:42.646Z,100707.60
2022-09-01T21:15:46.069Z,100707.21
2022-09-01T21:18:37.315Z,100705.23
2022-09-01T21:21:31.487Z,100703.08
2022-09-01T21:23:59.892Z,100700.78
2022-09-01T21:26:29.925Z,100706.45
2022-09-01T21:29:12.408Z,100707.59
2022-09-01T21:31:40.808Z,100713.01
2022-09-01T21:34:10.358Z,100709.25
2022-09-01T21:36:41.072Z,100711.26
2022-09-01T21:39:09.385Z,100713.81
2022-09-01T21:41:37.801Z,100711.66
2022-09-01T21:44:06.788Z,100713.66
2022-09-01T21:46:35.460Z,100719.73
2022-09-01T21:49:04.460Z,100718.30
2022-09-01T21:51:32.734Z,100716.71
2022-09-01T21:54:01.038Z,100718.06
2022-09-01T21:56:30.024Z,100722.70
2022-09-01T21:58:59.561Z,100721.19
2022-09-01T22:01:31.487Z,100721.99
2022-09-01T22:04:01.299Z,100725.52
2022-09-01T22:06:29.560Z,100721.28
2022-09-01T22:09:02.345Z,100728.21
2022-09-01T22:11:40.833Z,100729.01
2022-09-01T22:14:09.864Z,100728.77
2022-09-01T22:16:39.249Z,100727.74
2022-09-01T22:19:07.552Z,100729.66
2022-09-01T22:21:37.147Z,100736.45
2022-09-01T22:24:07.242Z,100737.46
2022-09-01T22:26:36.326Z,100734.37
2022-09-01T22:29:07.448Z,100733.17
2022-09-01T22:31:38.743Z,100732.14
2022-09-01T22:34:08.011Z,100736.12
2022-09-01T22:36:48.159Z,100739.24
2022-09-01T22:39:19.083Z,100736.70
2022-09-01T22:41:50.603Z,100738.30
2022-09-01T22:44:18.893Z,100739.24
2022-09-01T22:46:47.144Z,100739.56
2022-09-01T22:49:15.427Z,100739.64
2022-09-01T22:51:43.875Z,100738.30
2022-09-01T22:54:12.256Z,100738.13
2022-09-01T22:56:41.936Z,100735.75
2022-09-01T22:59:14.335Z,100735.59
2022-09-01T23:01:45.987Z,100733.14
2022-09-01T23:04:16.484Z,100734.34
2022-09-01T23:06:50.364Z,100730.19
2022-09-01T23:09:21.046Z,100734.59
2022-09-01T23:11:49.693Z,100739.61
2022-09-01T23:14:18.787Z,100740.48
2022-09-01T23:16:47.664Z,100743.99
2022-09-01T23:19:22.440Z,100744.95
2022-09-01T23:21:51.763Z,100750.02
2022-09-01T23:24:20.993Z,100749.70
2022-09-01T23:26:49.900Z,100752.41
2022-09-01T23:29:18.607Z,100751.21
2022-09-01T23:31:47.100Z,100746.20
2022-09-01T23:34:16.955Z,100746.98
2022-09-01T23:36:45.612Z,100743.27
2022-09-01T23:39:14.517Z,100742.61
2022-09-01T23:41:42.936Z,100742.77
2022-09-01T23:44:12.656Z,100741.02
2022-09-01T23:46:45.399Z,100742.55
2022-09-01T23:49:17.056Z,100737.05
2022-09-01T23:51:47.646Z,100734.89
2022-09-01T23:54:16.165Z,100737.60
2022-09-01T23:56:44.639Z,100746.52
2022-09-01T23:59:13.062Z,100751.92
